Michipicoten — CFG8060 — position and weather

sailwx.info

Track history (hours):
 
Tides and Currents Weather Stations Pressure Air Temp Water Temp Dewpoint Dewpoint Depression Visibility Wind Speed Wind Dir Waves Ship Positions

Michipicoten

Last reported at 2014-Oct-19 15:13 UTC. Time now 2014-Oct-21 05:21 UTC.
Position N 46°15' W 084°06'.

Length 212 m.

Type: Ship. MMSI: 316002501.

Date/timePositionNaut miles runAvg speedWind from/ knotsBaromVisibWave heightAir tempDewpointWater temp
2014-Oct-19 15:13N 46°15' W 084°06'16 9.4
2014-Oct-19 13:33N 46°02' W 083°54'3 3.0
2014-Oct-19 12:32N 45°59' W 083°53'0 0.0
2014-Oct-19 11:31N 45°59' W 083°53'0 0.1
2014-Oct-19 10:29N 45°59' W 083°53'0 0.0
2014-Oct-19 09:32N 45°59' W 083°53'0 0.0
2014-Oct-19 08:29N 45°59' W 083°53'0 0.0
2014-Oct-19 07:33N 45°59' W 083°53'0 0.0
2014-Oct-19 06:27N 45°59' W 083°53'0 0.0
2014-Oct-19 05:33N 45°59' W 083°53'0 0.0
2014-Oct-19 04:33N 45°59' W 083°53'0 0.0
2014-Oct-19 03:33N 45°59' W 083°53'0 0.0
2014-Oct-19 02:32N 45°59' W 083°53'1 1.0
2014-Oct-19 01:22N 45°58' W 083°53'23 0.6
2014-Oct-17 14:16N 46°15' W 083°32'21 1.7
2014-Oct-17 01:33N 46°03' W 083°57'1311.5
2014-Oct-17 00:25N 46°13' W 084°09'7 7.7
2014-Oct-16 23:27N 46°20' W 084°13'  
2014-Oct-13 02:03N 46°27' W 084°32'510.6
2014-Oct-13 01:33N 46°30' W 084°25'22 1.1
2014-Oct-12 05:33N 46°12' W 084°07'1111.0
2014-Oct-12 04:33N 46°03' W 083°58'  
Track history (hours):
 
Tides and Currents Weather Stations Pressure Air Temp Water Temp Dewpoint Dewpoint Depression Visibility Wind Speed Wind Dir Waves Ship Positions

Michipicoten

Last reported at 2014-Oct-19 15:13 UTC. Time now 2014-Oct-21 05:21 UTC.
Position N 46°15' W 084°06'.

Length 212 m.

Type: Ship. MMSI: 316002501.

Date/timePositionNaut miles runAvg speedWind from/ knotsBaromVisibWave heightAir tempDewpointWater temp
2014-Oct-19 15:13N 46°15' W 084°06'16 9.4
2014-Oct-19 13:33N 46°02' W 083°54'3 3.0
2014-Oct-19 12:32N 45°59' W 083°53'0 0.0
2014-Oct-19 11:31N 45°59' W 083°53'0 0.1
2014-Oct-19 10:29N 45°59' W 083°53'0 0.0
2014-Oct-19 09:32N 45°59' W 083°53'0 0.0
2014-Oct-19 08:29N 45°59' W 083°53'0 0.0
2014-Oct-19 07:33N 45°59' W 083°53'0 0.0
2014-Oct-19 06:27N 45°59' W 083°53'0 0.0
2014-Oct-19 05:33N 45°59' W 083°53'0 0.0
2014-Oct-19 04:33N 45°59' W 083°53'0 0.0
2014-Oct-19 03:33N 45°59' W 083°53'0 0.0
2014-Oct-19 02:32N 45°59' W 083°53'1 1.0
2014-Oct-19 01:22N 45°58' W 083°53'23 0.6
2014-Oct-17 14:16N 46°15' W 083°32'21 1.7
2014-Oct-17 01:33N 46°03' W 083°57'1311.5
2014-Oct-17 00:25N 46°13' W 084°09'7 7.7
2014-Oct-16 23:27N 46°20' W 084°13'  
2014-Oct-13 02:03N 46°27' W 084°32'510.6
2014-Oct-13 01:33N 46°30' W 084°25'22 1.1
2014-Oct-12 05:33N 46°12' W 084°07'1111.0
2014-Oct-12 04:33N 46°03' W 083°58'  

Dump ship's entire track history